Time;durP1;ratioP1;P1;durP2;ratioP2;P2;SDS_P1;SDS_P2;PMS_P1;PMS_P2;Temp;Humidity;BMP_temperature;BMP_pressure;BME280_temperature;BME280_humidity;BME280_pressure;Samples;Min_cycle;Max_cycle;Signal;HPM_P1;HPM_P2
2022/03/13 00:02:09;;;;;;;;;;;;;;;9.82;100.00;97759.13;5072939;28;19946;-79
2022/03/13 00:04:36;;;;;;;;;;;;;;;9.38;100.00;97746.25;5073043;28;19935;-79
2022/03/13 00:07:19;;;;;;;;;;;;;;;9.42;100.00;97751.72;5072883;28;20372;-79
2022/03/13 00:09:50;;;;;;;;;;;;;;;9.68;100.00;97747.66;5074155;28;20261;-79
2022/03/13 00:12:32;;;;;;;;;;;;;;;9.18;100.00;97758.84;5072851;28;19932;-79
2022/03/13 00:15:03;;;;;;;;;;;;;;;9.67;100.00;97746.09;5056652;28;19928;-78
2022/03/13 00:17:30;;;;;;;;;;;;;;;9.36;100.00;97739.56;5074087;28;19987;-79
2022/03/13 00:20:00;;;;;;;;;;;;;;;9.71;100.00;97749.56;5073988;28;19925;-79
2022/03/13 00:22:28;;;;;;;;;;;;;;;9.63;100.00;97711.97;5072531;28;20019;-78
2022/03/13 00:24:56;;;;;;;;;;;;;;;9.39;100.00;97733.09;5074047;28;20311;-79
2022/03/13 00:27:23;;;;;;;;;;;;;;;9.68;100.00;97717.75;5072556;28;19925;-79
2022/03/13 00:29:50;;;;;;;;;;;;;;;9.33;100.00;97727.28;5056188;28;19925;-79
2022/03/13 00:32:17;;;;;;;;;;;;;;;9.55;100.00;97721.78;5056366;28;19952;-79
2022/03/13 00:34:46;;;;;;;;;;;;;;;9.70;100.00;97695.78;5072504;28;19951;-79
2022/03/13 00:37:13;;;;;;;;;;;;;;;9.65;100.00;97698.38;5073820;28;19925;-79
2022/03/13 00:39:41;;;;;;;;;;;;;;;9.51;100.00;97715.56;5072582;28;19968;-78
2022/03/13 00:42:08;;;;;;;;;;;;;;;9.98;100.00;97713.56;5072621;28;19924;-79
2022/03/13 00:44:35;;;;;;;;;;;;;;;9.52;100.00;97705.97;5072672;28;20340;-79
2022/03/13 00:48:43;;;;;;;;;;;;;;;9.55;100.00;97694.69;5090877;28;20371;-79
2022/03/13 00:51:11;;;;;;;;;;;;;;;9.70;100.00;97690.19;5089785;28;19924;-79
2022/03/13 00:53:38;;;;;;;;;;;;;;;10.00;100.00;97697.13;5089909;28;19985;-79
2022/03/13 00:56:06;;;;;;;;;;;;;;;10.01;100.00;97687.53;5091157;28;20322;-79
2022/03/13 00:58:34;;;;;;;;;;;;;;;9.58;100.00;97674.28;5089801;28;20282;-78
2022/03/13 01:01:01;;;;;;;;;;;;;;;9.62;100.00;97688.88;5106694;28;20307;-79
2022/03/13 01:03:48;;;;;;;;;;;;;;;9.49;100.00;97695.72;5090846;28;20292;-79
2022/03/13 01:06:16;;;;;;;;;;;;;;;9.50;100.00;97689.69;5089544;28;20387;-79
2022/03/13 01:08:46;;;;;;;;;;;;;;;9.49;100.00;97668.63;5090986;28;20376;-79
2022/03/13 01:11:18;;;;;;;;;;;;;;;9.64;100.00;97691.22;5090837;28;20368;-79
2022/03/13 01:13:46;;;;;;;;;;;;;;;9.56;100.00;97678.75;5090709;28;20373;-79
2022/03/13 01:16:16;;;;;;;;;;;;;;;9.28;100.00;97674.91;5090800;28;19925;-79
2022/03/13 01:18:45;;;;;;;;;;;;;;;9.63;100.00;97672.94;5090639;28;19924;-79
2022/03/13 01:21:13;;;;;;;;;;;;;;;9.18;100.00;97693.53;5090844;28;20265;-79
2022/03/13 01:23:42;;;;;;;;;;;;;;;9.43;100.00;97683.56;5072981;28;20419;-79
2022/03/13 01:26:21;;;;;;;;;;;;;;;9.18;100.00;97679.59;5072327;28;19925;-79
2022/03/13 01:28:48;;;;;;;;;;;;;;;9.09;100.00;97662.75;5090730;28;20283;-79
2022/03/13 01:31:15;;;;;;;;;;;;;;;9.60;100.00;97671.84;5106861;28;19928;-79
2022/03/13 01:33:43;;;;;;;;;;;;;;;9.68;100.00;97667.56;5110724;28;20364;-79
2022/03/13 01:36:11;;;;;;;;;;;;;;;9.37;100.00;97685.34;5110625;28;20271;-79
2022/03/13 01:38:39;;;;;;;;;;;;;;;9.38;100.00;97656.25;5110819;28;19924;-79
2022/03/13 01:41:07;;;;;;;;;;;;;;;9.12;100.00;97680.59;5110738;28;19924;-79
2022/03/13 01:43:34;;;;;;;;;;;;;;;9.52;100.00;97672.50;5110738;28;19924;-79
2022/03/13 01:46:03;;;;;;;;;;;;;;;9.19;100.00;97667.19;5126374;27;20603;-79
2022/03/13 01:48:37;;;;;;;;;;;;;;;9.58;100.00;97642.81;5143184;27;19924;-79
2022/03/13 01:51:05;;;;;;;;;;;;;;;9.07;100.00;97651.28;5110789;28;19923;-79
2022/03/13 01:53:32;;;;;;;;;;;;;;;9.19;100.00;97660.88;5110604;28;19927;-79
2022/03/13 01:56:00;;;;;;;;;;;;;;;9.69;100.00;97662.75;5109349;28;19924;-79
2022/03/13 01:58:27;;;;;;;;;;;;;;;9.58;100.00;97653.97;5087876;28;19956;-79
2022/03/13 02:00:56;;;;;;;;;;;;;;;9.67;100.00;97656.84;5096676;28;19925;-79
2022/03/13 02:03:24;;;;;;;;;;;;;;;9.40;100.00;97667.75;5096760;28;20371;-79
2022/03/13 02:05:51;;;;;;;;;;;;;;;9.05;100.00;97656.53;5096788;28;19924;-79
2022/03/13 02:08:20;;;;;;;;;;;;;;;9.11;100.00;97637.25;5095392;28;19973;-77
2022/03/13 02:10:47;;;;;;;;;;;;;;;9.22;100.00;97642.47;5096549;28;19924;-79
2022/03/13 02:13:19;;;;;;;;;;;;;;;9.34;100.00;97644.44;5096588;28;20450;-79
2022/03/13 02:15:46;;;;;;;;;;;;;;;9.18;100.00;97635.00;5096532;28;20271;-79
2022/03/13 02:18:14;;;;;;;;;;;;;;;9.41;100.00;97624.69;5095392;28;19924;-79
2022/03/13 02:20:42;;;;;;;;;;;;;;;9.21;100.00;97632.56;5096779;28;20015;-79
2022/03/13 02:23:21;;;;;;;;;;;;;;;9.38;100.00;97633.94;5095204;28;20011;-79
2022/03/13 02:25:52;;;;;;;;;;;;;;;8.87;100.00;97630.47;5096605;28;19923;-79
2022/03/13 02:28:20;;;;;;;;;;;;;;;8.76;100.00;97638.38;5095165;28;19982;-79
2022/03/13 02:30:48;;;;;;;;;;;;;;;9.62;100.00;97635.13;5065899;28;19952;-79
2022/03/13 02:33:17;;;;;;;;;;;;;;;9.40;100.00;97632.28;5075799;28;19935;-79
2022/03/13 02:35:50;;;;;;;;;;;;;;;9.42;100.00;97634.63;5074752;28;19924;-79
2022/03/13 02:38:19;;;;;;;;;;;;;;;9.40;100.00;97635.06;5075999;28;20005;-79
2022/03/13 02:40:49;;;;;;;;;;;;;;;9.72;100.00;97631.97;5075881;28;19978;-79
2022/03/13 02:43:16;;;;;;;;;;;;;;;9.18;100.00;97625.09;5074631;28;19929;-79
2022/03/13 02:45:44;;;;;;;;;;;;;;;9.37;100.00;97615.69;5075405;28;20253;-79
2022/03/13 02:48:16;;;;;;;;;;;;;;;9.41;100.00;97608.75;5074446;28;19925;-79
2022/03/13 02:50:43;;;;;;;;;;;;;;;9.70;100.00;97612.13;5074645;28;20024;-79
2022/03/13 02:53:10;;;;;;;;;;;;;;;9.16;100.00;97600.47;5041213;28;20023;-79
2022/03/13 02:55:37;;;;;;;;;;;;;;;9.21;100.00;97590.75;5074497;28;19924;-79
2022/03/13 02:58:05;;;;;;;;;;;;;;;9.46;100.00;97612.97;5075552;28;19924;-77
2022/03/13 03:00:43;;;;;;;;;;;;;;;9.64;100.00;97607.56;5075276;28;19928;-79
2022/03/13 03:03:12;;;;;;;;;;;;;;;9.00;100.00;97609.72;5074467;28;20383;-79
2022/03/13 03:05:39;;;;;;;;;;;;;;;9.64;100.00;97599.19;5057335;28;19925;-79
2022/03/13 03:08:07;;;;;;;;;;;;;;;9.57;100.00;97618.97;5073376;28;19924;-79
2022/03/13 03:10:35;;;;;;;;;;;;;;;8.95;100.00;97621.44;5074345;28;19931;-79
2022/03/13 03:13:04;;;;;;;;;;;;;;;9.22;100.00;97597.88;5057633;28;20435;-79
2022/03/13 03:15:32;;;;;;;;;;;;;;;9.07;100.00;97597.59;5073731;28;19946;-79
2022/03/13 03:17:59;;;;;;;;;;;;;;;9.58;100.00;97604.56;5074871;28;19947;-79
2022/03/13 03:20:26;;;;;;;;;;;;;;;9.49;100.00;97598.91;5075191;28;19951;-79
2022/03/13 03:22:54;;;;;;;;;;;;;;;8.87;100.00;97608.19;5074857;28;20372;-79
2022/03/13 03:25:25;;;;;;;;;;;;;;;8.94;100.00;97596.81;5057194;28;19924;-79
2022/03/13 03:27:53;;;;;;;;;;;;;;;8.96;100.00;97602.72;5073582;28;19986;-79
2022/03/13 03:30:21;;;;;;;;;;;;;;;9.65;100.00;97597.97;5081911;28;19978;-79
2022/03/13 03:32:48;;;;;;;;;;;;;;;9.11;100.00;97593.44;5077051;28;20398;-79
2022/03/13 03:35:25;;;;;;;;;;;;;;;9.23;100.00;97596.63;5077054;28;19973;-79
2022/03/13 03:37:53;;;;;;;;;;;;;;;9.67;100.00;97575.97;5077025;28;20010;-79
2022/03/13 03:40:21;;;;;;;;;;;;;;;9.73;100.00;97582.53;5093703;28;19924;-79
2022/03/13 03:42:48;;;;;;;;;;;;;;;9.55;100.00;97571.22;5093489;28;19932;-78
2022/03/13 03:45:18;;;;;;;;;;;;;;;9.34;100.00;97578.34;5093323;28;20382;-79
2022/03/13 03:47:45;;;;;;;;;;;;;;;9.62;100.00;97576.56;5093335;28;19947;-78
2022/03/13 03:50:13;;;;;;;;;;;;;;;9.98;100.00;97577.59;5094645;28;19994;-79
2022/03/13 03:52:41;;;;;;;;;;;;;;;9.62;100.00;97573.78;5094669;28;19931;-79
2022/03/13 03:55:08;;;;;;;;;;;;;;;9.48;100.00;97560.34;5093429;28;20336;-79
2022/03/13 03:57:35;;;;;;;;;;;;;;;9.73;100.00;97563.78;5094325;28;20306;-78
2022/03/13 04:00:05;;;;;;;;;;;;;;;9.14;100.00;97581.41;5093227;28;19924;-79
2022/03/13 04:02:39;;;;;;;;;;;;;;;9.28;100.00;97579.34;5093338;28;19924;-78
2022/03/13 04:05:07;;;;;;;;;;;;;;;9.54;100.00;97575.25;5094196;28;20360;-79
2022/03/13 04:07:36;;;;;;;;;;;;;;;9.33;100.00;97565.63;5092929;28;20343;-79
2022/03/13 04:10:06;;;;;;;;;;;;;;;9.51;100.00;97565.78;5093348;28;20279;-79
2022/03/13 04:12:34;;;;;;;;;;;;;;;9.47;100.00;97553.19;5094171;28;19977;-78
2022/03/13 04:15:01;;;;;;;;;;;;;;;9.60;100.00;97563.09;5092929;28;19930;-79
2022/03/13 04:17:29;;;;;;;;;;;;;;;9.77;100.00;97570.00;5092977;28;19935;-79
2022/03/13 04:19:57;;;;;;;;;;;;;;;9.65;100.00;97570.09;5092970;28;20058;-79
2022/03/13 04:22:24;;;;;;;;;;;;;;;9.26;100.00;97537.22;5092621;28;19924;-78
2022/03/13 04:24:51;;;;;;;;;;;;;;;9.58;100.00;97548.03;5092892;28;19952;-79
2022/03/13 04:27:19;;;;;;;;;;;;;;;9.23;100.00;97565.97;5092643;28;19924;-79
2022/03/13 04:29:46;;;;;;;;;;;;;;;9.75;100.00;97557.75;5089036;28;19929;-79
2022/03/13 04:32:14;;;;;;;;;;;;;;;9.44;100.00;97554.88;5074065;28;19925;-79
2022/03/13 04:34:41;;;;;;;;;;;;;;;9.22;100.00;97567.22;5055735;28;19931;-79
2022/03/13 04:37:09;;;;;;;;;;;;;;;8.58;100.00;97571.31;5055728;28;20461;-78
2022/03/13 04:39:36;;;;;;;;;;;;;;;8.84;100.00;97545.81;5073734;28;19931;-79
2022/03/13 04:42:06;;;;;;;;;;;;;;;8.74;100.00;97563.63;5055639;28;20404;-79
2022/03/13 04:44:34;;;;;;;;;;;;;;;9.25;100.00;97555.97;5072371;28;19931;-78
2022/03/13 04:47:01;;;;;;;;;;;;;;;8.59;100.00;97568.09;5072228;28;20330;-78
2022/03/13 04:49:29;;;;;;;;;;;;;;;9.19;100.00;97552.94;5072049;28;19932;-78
2022/03/13 04:51:59;;;;;;;;;;;;;;;9.02;100.00;97551.56;5072008;28;20427;-78
2022/03/13 04:54:27;;;;;;;;;;;;;;;8.99;100.00;97551.69;5073066;28;19932;-78
2022/03/13 04:56:55;;;;;;;;;;;;;;;9.48;100.00;97554.78;5055174;28;19948;-78
2022/03/13 04:59:22;;;;;;;;;;;;;;;9.18;100.00;97535.94;5072960;28;19925;-78
2022/03/13 05:01:50;;;;;;;;;;;;;;;9.50;100.00;97546.72;5072957;28;20395;-79
2022/03/13 05:04:18;;;;;;;;;;;;;;;9.43;100.00;97541.41;5071970;28;20011;-78
2022/03/13 05:06:45;;;;;;;;;;;;;;;9.81;100.00;97528.84;5073231;28;19978;-78
2022/03/13 05:09:12;;;;;;;;;;;;;;;9.79;100.00;97538.88;5073453;28;19932;-78
2022/03/13 05:11:39;;;;;;;;;;;;;;;9.38;100.00;97551.13;5071932;28;19924;-78
2022/03/13 05:14:07;;;;;;;;;;;;;;;9.67;100.00;97543.31;5072098;28;19935;-78
2022/03/13 05:16:34;;;;;;;;;;;;;;;9.08;100.00;97537.84;5072100;28;20010;-78
2022/03/13 05:19:01;;;;;;;;;;;;;;;9.37;100.00;97534.84;5055227;28;20397;-78
2022/03/13 05:21:29;;;;;;;;;;;;;;;9.25;100.00;97530.09;5072049;28;20272;-78
2022/03/13 05:23:56;;;;;;;;;;;;;;;9.26;100.00;97531.63;5068027;28;20304;-78
2022/03/13 05:26:25;;;;;;;;;;;;;;;9.36;100.00;97522.16;5076357;28;19932;-78
2022/03/13 05:28:52;;;;;;;;;;;;;;;9.18;100.00;97539.47;5073153;28;19977;-78
2022/03/13 05:31:19;;;;;;;;;;;;;;;9.14;100.00;97531.25;5089855;28;20288;-78
2022/03/13 05:33:47;;;;;;;;;;;;;;;9.18;100.00;97524.78;5094300;28;19965;-78
2022/03/13 05:36:15;;;;;;;;;;;;;;;9.34;100.00;97522.59;5095945;28;20306;-78
2022/03/13 05:38:42;;;;;;;;;;;;;;;9.08;100.00;97538.63;5095618;28;20383;-78
2022/03/13 05:41:13;;;;;;;;;;;;;;;9.32;100.00;97533.41;5096985;28;20287;-78
2022/03/13 05:43:42;;;;;;;;;;;;;;;9.23;100.00;97532.53;5076957;28;20268;-78
2022/03/13 05:46:09;;;;;;;;;;;;;;;8.67;100.00;97516.53;5076557;28;20431;-78
2022/03/13 05:48:36;;;;;;;;;;;;;;;9.28;100.00;97540.34;5076322;28;19951;-78
2022/03/13 05:51:04;;;;;;;;;;;;;;;8.83;100.00;97538.66;5076694;28;20383;-78
2022/03/13 05:53:31;;;;;;;;;;;;;;;9.16;100.00;97551.06;5076263;28;20272;-78
2022/03/13 05:55:58;;;;;;;;;;;;;;;9.47;100.00;97534.47;5076256;28;20371;-78
2022/03/13 05:58:25;;;;;;;;;;;;;;;9.37;100.00;97541.22;5075175;28;20275;-78
2022/03/13 06:01:05;;;;;;;;;;;;;;;8.85;100.00;97536.22;5058897;28;20314;-78
2022/03/13 06:03:33;;;;;;;;;;;;;;;9.47;100.00;97545.63;5075239;28;19925;-78
2022/03/13 06:06:03;;;;;;;;;;;;;;;9.08;100.00;97538.63;5076230;28;19928;-78
2022/03/13 06:08:31;;;;;;;;;;;;;;;9.23;100.00;97530.53;5074867;28;19925;-78
2022/03/13 06:11:01;;;;;;;;;;;;;;;9.30;100.00;97537.88;5076121;28;19924;-78
2022/03/13 06:13:28;;;;;;;;;;;;;;;9.11;100.00;97537.72;5075034;28;19950;-78
2022/03/13 06:15:57;;;;;;;;;;;;;;;9.09;100.00;97534.59;5076194;28;19978;-78
2022/03/13 06:18:26;;;;;;;;;;;;;;;9.37;100.00;97557.13;5079526;28;20279;-78
2022/03/13 06:20:54;;;;;;;;;;;;;;;9.48;100.00;97549.19;5095197;28;19931;-78
2022/03/13 06:23:21;;;;;;;;;;;;;;;9.52;100.00;97560.97;5094636;28;20440;-78
2022/03/13 06:25:49;;;;;;;;;;;;;;;9.07;100.00;97555.78;5096141;28;19928;-78
2022/03/13 06:28:18;;;;;;;;;;;;;;;8.96;100.00;97552.56;5111779;28;19970;-78
2022/03/13 06:30:46;;;;;;;;;;;;;;;9.10;100.00;97558.44;5096212;28;19924;-78
2022/03/13 06:33:13;;;;;;;;;;;;;;;9.07;100.00;97548.19;5094663;28;19928;-78
2022/03/13 06:35:41;;;;;;;;;;;;;;;9.36;100.00;97545.19;5095844;28;19960;-78
2022/03/13 06:38:08;;;;;;;;;;;;;;;9.10;100.00;97538.19;5095752;28;20381;-78
2022/03/13 06:40:35;;;;;;;;;;;;;;;9.29;100.00;97558.59;5094768;28;19968;-78
2022/03/13 06:43:02;;;;;;;;;;;;;;;8.96;100.00;97555.38;5096045;28;20417;-78
2022/03/13 06:47:41;;;;;;;;;;;;;;;8.82;100.00;97525.97;5152507;27;19951;-78
2022/03/13 06:50:09;;;;;;;;;;;;;;;8.62;100.00;97556.06;5152744;27;19930;-78
2022/03/13 06:52:36;;;;;;;;;;;;;;;8.90;100.00;97549.59;5152429;27;19988;-78
2022/03/13 06:55:04;;;;;;;;;;;;;;;9.27;100.00;97558.31;5134086;27;19928;-78
2022/03/13 06:57:31;;;;;;;;;;;;;;;8.92;100.00;97552.69;5152416;27;20414;-78
2022/03/13 06:59:58;;;;;;;;;;;;;;;8.84;100.00;97562.53;5152648;27;19927;-78
2022/03/13 07:02:25;;;;;;;;;;;;;;;8.88;100.00;97549.25;5134084;27;19931;-78
2022/03/13 07:04:52;;;;;;;;;;;;;;;8.89;100.00;97552.81;5116573;27;20407;-78
2022/03/13 07:07:20;;;;;;;;;;;;;;;9.22;100.00;97559.66;5144564;27;19924;-78
2022/03/13 07:09:47;;;;;;;;;;;;;;;9.15;100.00;97535.59;5131661;27;19924;-78
2022/03/13 07:12:14;;;;;;;;;;;;;;;9.08;100.00;97544.19;5131560;28;19927;-78
2022/03/13 07:14:46;;;;;;;;;;;;;;;9.16;100.00;97534.34;5131477;28;19928;-78
2022/03/13 07:17:14;;;;;;;;;;;;;;;8.90;100.00;97516.16;5113139;28;20261;-79
2022/03/13 07:19:43;;;;;;;;;;;;;;;8.71;100.00;97528.31;5131212;28;20371;-78
2022/03/13 07:22:11;;;;;;;;;;;;;;;8.51;100.00;97550.06;5131276;28;19924;-78
2022/03/13 07:24:40;;;;;;;;;;;;;;;8.79;100.00;97540.81;5131378;28;19924;-78
2022/03/13 07:27:09;;;;;;;;;;;;;;;9.14;100.00;97544.41;5112945;28;20359;-78
2022/03/13 07:29:36;;;;;;;;;;;;;;;9.08;100.00;97537.84;5124611;27;20273;-79
2022/03/13 07:32:03;;;;;;;;;;;;;;;9.05;100.00;97550.66;5152005;27;19930;-77
2022/03/13 07:34:30;;;;;;;;;;;;;;;8.67;100.00;97538.03;5151658;27;19923;-78
2022/03/13 07:36:58;;;;;;;;;;;;;;;9.03;100.00;97538.41;5116131;27;19923;-78
2022/03/13 07:39:29;;;;;;;;;;;;;;;9.09;100.00;97547.75;5133808;27;19996;-79
2022/03/13 07:41:56;;;;;;;;;;;;;;;8.81;100.00;97526.44;5151846;27;20328;-81
2022/03/13 07:44:25;;;;;;;;;;;;;;;8.67;100.00;97546.38;5133401;27;19924;-80
2022/03/13 07:46:55;;;;;;;;;;;;;;;8.98;100.00;97550.88;5151519;27;19927;-80
2022/03/13 07:49:22;;;;;;;;;;;;;;;9.27;100.00;97566.66;5133562;27;19923;-80
2022/03/13 07:51:49;;;;;;;;;;;;;;;9.28;100.00;97565.41;5133215;27;20010;-80
2022/03/13 07:54:19;;;;;;;;;;;;;;;8.77;100.00;97540.47;5116625;27;20267;-80
2022/03/13 07:56:46;;;;;;;;;;;;;;;8.72;100.00;97563.28;5115478;27;19923;-80
2022/03/13 07:59:14;;;;;;;;;;;;;;;8.81;100.00;97530.00;5103240;28;19930;-80
2022/03/13 08:01:41;;;;;;;;;;;;;;;9.26;100.00;97548.38;5084783;27;19989;-80
2022/03/13 08:04:09;;;;;;;;;;;;;;;9.48;100.00;97561.09;5119368;27;19924;-80
2022/03/13 08:08:22;;;;;;;;;;;;;;;9.36;100.00;97559.13;5098368;28;19917;-81
2022/03/13 08:10:50;;;;;;;;;;;;;;;9.50;100.00;97563.44;5111013;28;19924;-81
2022/03/13 08:13:18;;;;;;;;;;;;;;;9.31;100.00;97548.59;5110772;28;19924;-81
2022/03/13 08:15:47;;;;;;;;;;;;;;;9.39;100.00;97565.84;5085358;28;19924;-81
2022/03/13 08:18:18;;;;;;;;;;;;;;;9.36;100.00;97580.69;5097819;28;20361;-81
2022/03/13 08:20:45;;;;;;;;;;;;;;;9.53;100.00;97568.09;5086861;28;19977;-81
2022/03/13 08:23:12;;;;;;;;;;;;;;;9.32;100.00;97566.06;5077270;28;19935;-80
2022/03/13 08:25:42;;;;;;;;;;;;;;;9.43;100.00;97586.00;5091547;28;19924;-80
2022/03/13 08:28:10;;;;;;;;;;;;;;;9.29;100.00;97566.97;5089629;28;19931;-80
2022/03/13 08:30:38;;;;;;;;;;;;;;;8.85;100.00;97572.44;5106614;28;19931;-80
2022/03/13 08:33:05;;;;;;;;;;;;;;;9.27;100.00;97573.00;5106592;28;19931;-81
2022/03/13 08:35:32;;;;;;;;;;;;;;;9.36;100.00;97578.66;5056153;28;20015;-80
2022/03/13 08:38:01;;;;;;;;;;;;;;;9.14;100.00;97592.56;5089945;28;19924;-80
2022/03/13 08:40:29;;;;;;;;;;;;;;;9.40;100.00;97575.75;5072895;28;19924;-80
2022/03/13 08:42:59;;;;;;;;;;;;;;;8.97;100.00;97576.41;5073091;28;19931;-80
2022/03/13 08:45:27;;;;;;;;;;;;;;;8.99;100.00;97585.91;5089589;28;19951;-79
2022/03/13 08:47:54;;;;;;;;;;;;;;;9.34;100.00;97595.06;5089394;28;20291;-80
2022/03/13 08:50:21;;;;;;;;;;;;;;;9.29;100.00;97578.13;5090401;28;19932;-79
2022/03/13 08:52:48;;;;;;;;;;;;;;;9.43;100.00;97555.34;5090275;28;19966;-80
2022/03/13 08:55:18;;;;;;;;;;;;;;;9.68;100.00;97574.75;5072645;28;20012;-81
2022/03/13 08:57:46;;;;;;;;;;;;;;;9.76;100.00;97588.00;5072761;28;19924;-80
2022/03/13 09:00:14;;;;;;;;;;;;;;;9.85;100.00;97573.31;5090879;28;19935;-82
2022/03/13 09:02:53;;;;;;;;;;;;;;;10.30;100.00;97604.38;5089722;28;20400;-84
2022/03/13 09:05:37;;;;;;;;;;;;;;;9.90;100.00;97593.06;5087029;28;19924;-85
2022/03/13 09:08:05;;;;;;;;;;;;;;;9.78;100.00;97607.06;5088966;28;20017;-82
2022/03/13 09:10:37;;;;;;;;;;;;;;;9.03;100.00;97597.69;5106814;28;19925;-81
2022/03/13 09:13:07;;;;;;;;;;;;;;;9.69;100.00;97605.00;5087501;28;19928;-82
2022/03/13 09:15:39;;;;;;;;;;;;;;;10.05;100.00;97579.34;5081774;28;19931;-82
2022/03/13 09:18:13;;;;;;;;;;;;;;;9.76;100.00;97582.41;5083533;28;19982;-82
2022/03/13 09:20:41;;;;;;;;;;;;;;;10.14;100.00;97593.41;5109438;28;19964;-84
2022/03/13 09:23:08;;;;;;;;;;;;;;;10.56;100.00;97616.91;5092594;28;20328;-83
2022/03/13 09:25:39;;;;;;;;;;;;;;;10.49;100.00;97603.22;5076557;28;20355;-83
2022/03/13 09:28:07;;;;;;;;;;;;;;;9.88;100.00;97594.72;5059421;28;20430;-81
2022/03/13 09:30:36;;;;;;;;;;;;;;;10.41;100.00;97615.88;5055213;28;20074;-82
2022/03/13 09:33:05;;;;;;;;;;;;;;;9.74;100.00;97581.31;5097478;28;19925;-81
2022/03/13 09:35:32;;;;;;;;;;;;;;;10.29;100.00;97591.63;5092113;28;19924;-82
2022/03/13 09:38:00;;;;;;;;;;;;;;;9.80;100.00;97594.22;5081575;28;19924;-81
2022/03/13 09:40:28;;;;;;;;;;;;;;;10.33;100.00;97609.03;5079636;28;19924;-82
2022/03/13 09:42:55;;;;;;;;;;;;;;;10.32;100.00;97596.28;5088912;28;19934;-82
2022/03/13 09:45:23;;;;;;;;;;;;;;;10.68;100.00;97616.03;5056098;28;19928;-85
2022/03/13 09:47:53;;;;;;;;;;;;;;;11.16;100.00;97581.75;5071503;28;19959;-82
2022/03/13 09:50:22;;;;;;;;;;;;;;;10.85;100.00;97606.16;5072786;28;19924;-82
2022/03/13 09:52:49;;;;;;;;;;;;;;;10.32;100.00;97607.47;5069901;28;19924;-82
2022/03/13 09:55:16;;;;;;;;;;;;;;;10.74;100.00;97609.41;5072698;28;19931;-82
2022/03/13 09:57:43;;;;;;;;;;;;;;;11.27;100.00;97598.09;5072955;28;19936;-82
2022/03/13 10:00:12;;;;;;;;;;;;;;;11.32;100.00;97631.78;5051547;28;20343;-82
2022/03/13 10:02:43;;;;;;;;;;;;;;;11.42;100.00;97607.44;5055279;28;20493;-81
2022/03/13 10:05:11;;;;;;;;;;;;;;;11.46;100.00;97605.25;5071641;28;19956;-81
2022/03/13 10:07:58;;;;;;;;;;;;;;;11.30;100.00;97603.50;5070744;28;19924;-81
2022/03/13 10:10:26;;;;;;;;;;;;;;;10.71;100.00;97595.56;5068722;28;19929;-80
2022/03/13 10:12:54;;;;;;;;;;;;;;;10.59;100.00;97632.75;5069063;28;19931;-81
2022/03/13 10:15:22;;;;;;;;;;;;;;;10.66;100.00;97593.38;5053980;28;20574;-81
2022/03/13 10:17:49;;;;;;;;;;;;;;;10.86;100.00;97602.13;5071750;28;19924;-82
2022/03/13 10:20:21;;;;;;;;;;;;;;;10.71;100.00;97601.94;5082424;28;19959;-80
2022/03/13 10:23:01;;;;;;;;;;;;;;;10.96;100.00;97612.88;5092819;28;20598;-82
2022/03/13 10:25:30;;;;;;;;;;;;;;;10.59;100.00;97594.44;5091791;28;20587;-81
2022/03/13 10:28:16;;;;;;;;;;;;;;;11.23;100.00;97634.56;5091894;28;19924;-81
2022/03/13 10:30:44;;;;;;;;;;;;;;;10.95;100.00;97621.72;5091475;28;19928;-81
2022/03/13 10:33:12;;;;;;;;;;;;;;;10.86;100.00;97613.31;5092551;28;19924;-83
2022/03/13 10:35:39;;;;;;;;;;;;;;;10.33;100.00;97625.78;5058644;28;20337;-81
2022/03/13 10:38:27;;;;;;;;;;;;;;;10.58;100.00;97618.03;5090771;28;19924;-81
2022/03/13 10:40:57;;;;;;;;;;;;;;;10.57;100.00;97632.44;5092142;28;20027;-85
2022/03/13 10:43:29;;;;;;;;;;;;;;;10.93;100.00;97624.22;5091208;28;19928;-82
2022/03/13 10:45:58;;;;;;;;;;;;;;;11.27;100.00;97620.44;5086247;28;19978;-89
2022/03/13 10:48:33;;;;;;;;;;;;;;;11.30;100.00;97631.47;5071338;28;19924;-87
2022/03/13 10:51:01;;;;;;;;;;;;;;;11.32;100.00;97615.00;5071219;28;19989;-83
2022/03/13 10:53:29;;;;;;;;;;;;;;;12.11;100.00;97617.59;5096480;28;20662;-84
2022/03/13 10:56:08;;;;;;;;;;;;;;;12.12;100.00;97612.75;5104193;28;19926;-85
2022/03/13 10:58:37;;;;;;;;;;;;;;;12.05;100.00;97633.44;5087576;28;19964;-85
2022/03/13 11:01:09;;;;;;;;;;;;;;;11.37;100.00;97603.22;5070611;28;19971;-83
2022/03/13 11:03:48;;;;;;;;;;;;;;;11.84;100.00;97648.38;5087671;28;19964;-80
2022/03/13 11:06:16;;;;;;;;;;;;;;;11.63;100.00;97629.69;5071056;28;19929;-80
2022/03/13 11:08:43;;;;;;;;;;;;;;;11.32;100.00;97633.78;5071024;28;19949;-80
2022/03/13 11:11:15;;;;;;;;;;;;;;;11.22;100.00;97585.50;5069682;28;19925;-80
2022/03/13 11:13:43;;;;;;;;;;;;;;;11.60;100.00;97647.38;5069976;28;19925;-81
2022/03/13 11:16:11;;;;;;;;;;;;;;;11.79;100.00;97635.00;5071327;28;20253;-80
2022/03/13 11:18:38;;;;;;;;;;;;;;;11.72;100.00;97621.28;5089784;28;19925;-78
2022/03/13 11:21:08;;;;;;;;;;;;;;;12.18;100.00;97617.25;5089995;28;20291;-79
2022/03/13 11:24:04;;;;;;;;;;;;;;;12.22;100.00;97657.06;5054722;28;20062;-79
2022/03/13 11:26:31;;;;;;;;;;;;;;;12.01;100.00;97646.06;5072554;28;20391;-79
2022/03/13 11:29:09;;;;;;;;;;;;;;;11.76;100.00;97607.16;5073389;28;20363;-79
2022/03/13 11:31:42;;;;;;;;;;;;;;;11.54;100.00;97624.03;5055327;28;19925;-79
2022/03/13 11:34:37;;;;;;;;;;;;;;;11.70;100.00;97632.19;5049011;28;20372;-78
2022/03/13 11:38:04;;;;;;;;;;;;;;;12.20;100.00;97653.97;5061696;28;20338;-79
2022/03/13 11:40:33;;;;;;;;;;;;;;;12.06;100.00;97649.00;5073911;28;19924;-79
2022/03/13 11:43:08;;;;;;;;;;;;;;;12.06;100.00;97637.78;5073550;28;19924;-79
2022/03/13 11:45:38;;;;;;;;;;;;;;;12.40;100.00;97656.28;5074261;28;19925;-81
2022/03/13 11:51:29;;;;;;;;;;;;;;;12.04;100.00;97654.28;5072703;28;19924;-79
2022/03/13 11:53:58;;;;;;;;;;;;;;;12.65;100.00;97659.50;5072482;28;19929;-80
2022/03/13 11:56:27;;;;;;;;;;;;;;;12.31;100.00;97667.50;5073489;28;19925;-79
2022/03/13 11:58:59;;;;;;;;;;;;;;;12.29;100.00;97667.19;5073685;28;19932;-80
2022/03/13 12:01:36;;;;;;;;;;;;;;;12.37;100.00;97669.19;5072298;28;19924;-80
2022/03/13 12:08:12;;;;;;;;;;;;;;;12.57;100.00;97658.25;5067075;28;20006;-79
2022/03/13 12:10:42;;;;;;;;;;;;;;;12.96;100.00;97684.47;5072899;28;19925;-79
2022/03/13 12:13:10;;;;;;;;;;;;;;;12.59;100.00;97612.97;5071819;28;20445;-79
2022/03/13 12:15:41;;;;;;;;;;;;;;;12.51;100.00;97667.78;5073189;28;19924;-79
2022/03/13 12:18:17;;;;;;;;;;;;;;;12.89;100.00;97673.59;5073102;28;19925;-78
2022/03/13 12:20:46;;;;;;;;;;;;;;;13.04;100.00;97687.75;5072188;28;19931;-78
2022/03/13 12:23:31;;;;;;;;;;;;;;;12.77;100.00;97675.34;5071568;28;19968;-79
2022/03/13 12:26:13;;;;;;;;;;;;;;;12.78;100.00;97674.09;5054923;28;19925;-79
2022/03/13 12:28:41;;;;;;;;;;;;;;;12.67;100.00;97687.84;5055894;28;20007;-79
2022/03/13 12:31:08;;;;;;;;;;;;;;;13.27;100.00;97689.84;5073555;28;20343;-80
2022/03/13 12:33:36;;;;;;;;;;;;;;;13.22;100.00;97674.44;5073432;28;19948;-80
2022/03/13 12:36:03;;;;;;;;;;;;;;;13.37;100.00;97688.56;5073325;28;19925;-80
2022/03/13 12:38:32;;;;;;;;;;;;;;;12.97;100.00;97671.22;5071063;28;20015;-80
2022/03/13 12:41:02;;;;;;;;;;;;;;;13.20;100.00;97679.75;5072014;28;19974;-80
2022/03/13 12:43:49;;;;;;;;;;;;;;;13.29;100.00;97698.56;5075096;28;19925;-81
2022/03/13 12:46:18;;;;;;;;;;;;;;;13.19;100.00;97697.03;5071931;28;19948;-80
2022/03/13 12:48:54;;;;;;;;;;;;;;;13.36;100.00;97682.16;5073270;28;19924;-80
2022/03/13 12:51:34;;;;;;;;;;;;;;;13.29;100.00;97684.53;5073616;28;19929;-79
2022/03/13 12:54:07;;;;;;;;;;;;;;;12.75;100.00;97689.03;5074760;28;19928;-81
2022/03/13 12:56:35;;;;;;;;;;;;;;;13.26;100.00;97689.06;5075660;28;20030;-80
2022/03/13 12:59:02;;;;;;;;;;;;;;;13.31;100.00;97705.25;5075899;28;20046;-80
2022/03/13 13:01:29;;;;;;;;;;;;;;;13.47;100.00;97701.28;5042882;28;19924;-80
2022/03/13 13:03:59;;;;;;;;;;;;;;;13.59;100.00;97695.44;5077058;28;19942;-78
2022/03/13 13:06:32;;;;;;;;;;;;;;;12.84;100.00;97684.66;5073933;28;20375;-81
2022/03/13 13:08:59;;;;;;;;;;;;;;;12.85;100.00;97691.81;5075538;28;19964;-82